sensor_id;sensor_type;location;lat;lon;timestamp;P1;durP1;ratioP1;P2;durP2;ratioP2
58152;SDS011;43967;51.634;5.566;2023-08-12T00:01:23;6.10;;;2.35;;
58152;SDS011;43967;51.634;5.566;2023-08-12T00:06:45;6.22;;;2.30;;
58152;SDS011;43967;51.634;5.566;2023-08-12T00:12:06;5.73;;;2.00;;
58152;SDS011;43967;51.634;5.566;2023-08-12T00:17:27;6.55;;;2.28;;
58152;SDS011;43967;51.634;5.566;2023-08-12T00:22:49;6.43;;;2.30;;
58152;SDS011;43967;51.634;5.566;2023-08-12T00:28:10;6.03;;;2.20;;
58152;SDS011;43967;51.634;5.566;2023-08-12T00:33:31;6.37;;;2.10;;
58152;SDS011;43967;51.634;5.566;2023-08-12T00:38:53;6.13;;;2.22;;
58152;SDS011;43967;51.634;5.566;2023-08-12T00:44:14;6.80;;;2.60;;
58152;SDS011;43967;51.634;5.566;2023-08-12T00:49:35;6.03;;;2.10;;
58152;SDS011;43967;51.634;5.566;2023-08-12T00:54:57;5.72;;;2.40;;
58152;SDS011;43967;51.634;5.566;2023-08-12T01:00:18;6.70;;;2.63;;
58152;SDS011;43967;51.634;5.566;2023-08-12T01:05:40;6.00;;;2.53;;
58152;SDS011;43967;51.634;5.566;2023-08-12T01:11:03;6.53;;;2.22;;
58152;SDS011;43967;51.634;5.566;2023-08-12T01:16:34;6.65;;;3.00;;
58152;SDS011;43967;51.634;5.566;2023-08-12T01:22:04;6.87;;;2.90;;
58152;SDS011;43967;51.634;5.566;2023-08-12T01:27:29;7.03;;;2.40;;
58152;SDS011;43967;51.634;5.566;2023-08-12T01:38:50;7.25;;;2.60;;
58152;SDS011;43967;51.634;5.566;2023-08-12T01:44:12;7.97;;;2.47;;
58152;SDS011;43967;51.634;5.566;2023-08-12T01:49:33;6.88;;;2.45;;
58152;SDS011;43967;51.634;5.566;2023-08-12T01:54:55;6.53;;;2.60;;
58152;SDS011;43967;51.634;5.566;2023-08-12T02:00:16;6.00;;;2.60;;
58152;SDS011;43967;51.634;5.566;2023-08-12T02:05:38;6.25;;;2.65;;
58152;SDS011;43967;51.634;5.566;2023-08-12T02:10:59;5.93;;;2.45;;
58152;SDS011;43967;51.634;5.566;2023-08-12T02:16:20;7.37;;;2.80;;
58152;SDS011;43967;51.634;5.566;2023-08-12T02:21:42;7.43;;;2.83;;
58152;SDS011;43967;51.634;5.566;2023-08-12T02:27:03;6.30;;;2.55;;
58152;SDS011;43967;51.634;5.566;2023-08-12T02:32:25;7.18;;;2.90;;
58152;SDS011;43967;51.634;5.566;2023-08-12T02:37:47;6.90;;;2.77;;
58152;SDS011;43967;51.634;5.566;2023-08-12T02:43:09;6.30;;;2.60;;
58152;SDS011;43967;51.634;5.566;2023-08-12T02:48:30;6.47;;;2.63;;
58152;SDS011;43967;51.634;5.566;2023-08-12T02:53:52;6.77;;;2.80;;
58152;SDS011;43967;51.634;5.566;2023-08-12T02:59:13;6.60;;;2.67;;
58152;SDS011;43967;51.634;5.566;2023-08-12T03:04:34;6.03;;;2.63;;
58152;SDS011;43967;51.634;5.566;2023-08-12T03:09:55;6.90;;;2.87;;
58152;SDS011;43967;51.634;5.566;2023-08-12T03:15:17;6.23;;;2.67;;
58152;SDS011;43967;51.634;5.566;2023-08-12T03:20:38;6.75;;;2.80;;
58152;SDS011;43967;51.634;5.566;2023-08-12T03:25:59;6.60;;;3.03;;
58152;SDS011;43967;51.634;5.566;2023-08-12T03:31:20;6.43;;;2.90;;
58152;SDS011;43967;51.634;5.566;2023-08-12T03:36:42;6.45;;;2.85;;
58152;SDS011;43967;51.634;5.566;2023-08-12T03:42:03;6.40;;;2.55;;
58152;SDS011;43967;51.634;5.566;2023-08-12T03:47:24;7.03;;;2.80;;
58152;SDS011;43967;51.634;5.566;2023-08-12T03:52:46;6.25;;;2.45;;
58152;SDS011;43967;51.634;5.566;2023-08-12T03:58:07;6.43;;;2.63;;
58152;SDS011;43967;51.634;5.566;2023-08-12T04:03:28;6.87;;;3.43;;
58152;SDS011;43967;51.634;5.566;2023-08-12T04:08:50;6.03;;;2.73;;
58152;SDS011;43967;51.634;5.566;2023-08-12T04:14:12;6.07;;;2.70;;
58152;SDS011;43967;51.634;5.566;2023-08-12T04:19:33;7.05;;;2.92;;
58152;SDS011;43967;51.634;5.566;2023-08-12T04:24:54;6.17;;;2.43;;
58152;SDS011;43967;51.634;5.566;2023-08-12T04:30:16;6.63;;;2.80;;
58152;SDS011;43967;51.634;5.566;2023-08-12T04:35:39;6.40;;;3.00;;
58152;SDS011;43967;51.634;5.566;2023-08-12T04:41:01;6.27;;;2.83;;
58152;SDS011;43967;51.634;5.566;2023-08-12T04:46:22;6.97;;;2.67;;
58152;SDS011;43967;51.634;5.566;2023-08-12T04:51:44;6.35;;;2.55;;
58152;SDS011;43967;51.634;5.566;2023-08-12T04:57:05;6.83;;;3.03;;
58152;SDS011;43967;51.634;5.566;2023-08-12T05:02:26;7.20;;;2.63;;
58152;SDS011;43967;51.634;5.566;2023-08-12T05:07:47;6.65;;;3.00;;
58152;SDS011;43967;51.634;5.566;2023-08-12T05:13:09;6.22;;;2.47;;
58152;SDS011;43967;51.634;5.566;2023-08-12T05:18:30;6.47;;;2.90;;
58152;SDS011;43967;51.634;5.566;2023-08-12T05:23:51;6.63;;;2.88;;
58152;SDS011;43967;51.634;5.566;2023-08-12T05:29:13;6.40;;;3.00;;
58152;SDS011;43967;51.634;5.566;2023-08-12T05:34:34;6.50;;;2.70;;
58152;SDS011;43967;51.634;5.566;2023-08-12T05:39:55;6.68;;;2.80;;
58152;SDS011;43967;51.634;5.566;2023-08-12T05:45:17;6.03;;;2.50;;
58152;SDS011;43967;51.634;5.566;2023-08-12T05:50:38;6.80;;;2.50;;
58152;SDS011;43967;51.634;5.566;2023-08-12T05:55:59;6.87;;;2.80;;
58152;SDS011;43967;51.634;5.566;2023-08-12T06:01:20;6.35;;;2.55;;
58152;SDS011;43967;51.634;5.566;2023-08-12T06:06:42;6.65;;;3.03;;
58152;SDS011;43967;51.634;5.566;2023-08-12T06:12:03;6.27;;;2.73;;
58152;SDS011;43967;51.634;5.566;2023-08-12T06:17:25;6.28;;;2.80;;
58152;SDS011;43967;51.634;5.566;2023-08-12T06:22:46;6.55;;;2.60;;
58152;SDS011;43967;51.634;5.566;2023-08-12T06:28:07;6.63;;;2.77;;
58152;SDS011;43967;51.634;5.566;2023-08-12T06:33:29;6.82;;;2.75;;
58152;SDS011;43967;51.634;5.566;2023-08-12T06:38:50;6.22;;;2.50;;
58152;SDS011;43967;51.634;5.566;2023-08-12T06:44:11;6.97;;;2.67;;
58152;SDS011;43967;51.634;5.566;2023-08-12T06:49:32;6.43;;;2.70;;
58152;SDS011;43967;51.634;5.566;2023-08-12T06:54:54;6.35;;;2.70;;
58152;SDS011;43967;51.634;5.566;2023-08-12T07:00:15;6.65;;;2.88;;
58152;SDS011;43967;51.634;5.566;2023-08-12T07:05:36;5.90;;;2.50;;
58152;SDS011;43967;51.634;5.566;2023-08-12T07:10:58;6.35;;;2.70;;
58152;SDS011;43967;51.634;5.566;2023-08-12T07:16:19;6.05;;;2.50;;
58152;SDS011;43967;51.634;5.566;2023-08-12T07:21:40;6.20;;;2.83;;
58152;SDS011;43967;51.634;5.566;2023-08-12T07:27:02;6.43;;;2.67;;
58152;SDS011;43967;51.634;5.566;2023-08-12T07:32:23;6.07;;;2.50;;
58152;SDS011;43967;51.634;5.566;2023-08-12T07:37:44;6.17;;;2.73;;
58152;SDS011;43967;51.634;5.566;2023-08-12T07:43:05;6.50;;;2.80;;
58152;SDS011;43967;51.634;5.566;2023-08-12T07:48:27;6.07;;;2.50;;
58152;SDS011;43967;51.634;5.566;2023-08-12T07:53:48;6.18;;;2.63;;
58152;SDS011;43967;51.634;5.566;2023-08-12T07:59:09;5.83;;;2.30;;
58152;SDS011;43967;51.634;5.566;2023-08-12T08:04:30;6.10;;;2.60;;
58152;SDS011;43967;51.634;5.566;2023-08-12T08:09:52;6.00;;;2.42;;
58152;SDS011;43967;51.634;5.566;2023-08-12T08:15:13;6.00;;;2.37;;
58152;SDS011;43967;51.634;5.566;2023-08-12T08:20:34;6.13;;;2.90;;
58152;SDS011;43967;51.634;5.566;2023-08-12T08:25:56;6.38;;;2.55;;
58152;SDS011;43967;51.634;5.566;2023-08-12T08:31:17;6.30;;;2.50;;
58152;SDS011;43967;51.634;5.566;2023-08-12T08:36:38;6.03;;;2.73;;
58152;SDS011;43967;51.634;5.566;2023-08-12T08:42:00;6.35;;;2.65;;
58152;SDS011;43967;51.634;5.566;2023-08-12T08:47:25;6.97;;;2.60;;
58152;SDS011;43967;51.634;5.566;2023-08-12T08:52:47;5.90;;;2.50;;
58152;SDS011;43967;51.634;5.566;2023-08-12T08:58:09;6.10;;;2.75;;
58152;SDS011;43967;51.634;5.566;2023-08-12T09:03:31;6.43;;;2.78;;
58152;SDS011;43967;51.634;5.566;2023-08-12T09:08:52;5.83;;;2.10;;
58152;SDS011;43967;51.634;5.566;2023-08-12T09:14:15;6.00;;;2.38;;
58152;SDS011;43967;51.634;5.566;2023-08-12T09:19:36;6.25;;;2.45;;
58152;SDS011;43967;51.634;5.566;2023-08-12T09:24:58;6.07;;;2.30;;
58152;SDS011;43967;51.634;5.566;2023-08-12T09:30:19;5.80;;;2.43;;
58152;SDS011;43967;51.634;5.566;2023-08-12T09:35:41;6.40;;;2.72;;
58152;SDS011;43967;51.634;5.566;2023-08-12T09:41:02;6.03;;;2.30;;
58152;SDS011;43967;51.634;5.566;2023-08-12T09:46:24;5.47;;;2.20;;
58152;SDS011;43967;51.634;5.566;2023-08-12T09:51:45;6.00;;;2.75;;
58152;SDS011;43967;51.634;5.566;2023-08-12T09:57:06;6.03;;;2.40;;
58152;SDS011;43967;51.634;5.566;2023-08-12T10:02:32;5.70;;;2.30;;
58152;SDS011;43967;51.634;5.566;2023-08-12T10:07:54;5.45;;;2.10;;
58152;SDS011;43967;51.634;5.566;2023-08-12T10:13:15;6.25;;;2.40;;
58152;SDS011;43967;51.634;5.566;2023-08-12T10:18:38;5.77;;;2.10;;
58152;SDS011;43967;51.634;5.566;2023-08-12T10:24:00;6.27;;;2.30;;
58152;SDS011;43967;51.634;5.566;2023-08-12T10:29:24;5.65;;;2.25;;
58152;SDS011;43967;51.634;5.566;2023-08-12T10:34:45;5.60;;;2.22;;
58152;SDS011;43967;51.634;5.566;2023-08-12T10:40:21;5.50;;;2.13;;
58152;SDS011;43967;51.634;5.566;2023-08-12T10:45:47;5.22;;;1.90;;
58152;SDS011;43967;51.634;5.566;2023-08-12T10:51:10;5.60;;;2.20;;
58152;SDS011;43967;51.634;5.566;2023-08-12T10:56:31;5.30;;;2.00;;
58152;SDS011;43967;51.634;5.566;2023-08-12T11:01:52;5.90;;;2.13;;
58152;SDS011;43967;51.634;5.566;2023-08-12T11:07:20;5.40;;;2.00;;
58152;SDS011;43967;51.634;5.566;2023-08-12T11:12:48;5.80;;;2.00;;
58152;SDS011;43967;51.634;5.566;2023-08-12T11:18:19;5.90;;;2.60;;
58152;SDS011;43967;51.634;5.566;2023-08-12T11:23:41;5.47;;;2.33;;
58152;SDS011;43967;51.634;5.566;2023-08-12T11:29:07;5.07;;;2.08;;
58152;SDS011;43967;51.634;5.566;2023-08-12T11:34:30;5.40;;;1.87;;
58152;SDS011;43967;51.634;5.566;2023-08-12T11:39:52;5.38;;;2.10;;
58152;SDS011;43967;51.634;5.566;2023-08-12T11:45:15;5.40;;;1.80;;
58152;SDS011;43967;51.634;5.566;2023-08-12T11:50:38;6.00;;;2.20;;
58152;SDS011;43967;51.634;5.566;2023-08-12T11:56:00;5.80;;;1.90;;
58152;SDS011;43967;51.634;5.566;2023-08-12T12:01:21;5.40;;;1.83;;
58152;SDS011;43967;51.634;5.566;2023-08-12T12:06:42;6.83;;;2.23;;
58152;SDS011;43967;51.634;5.566;2023-08-12T12:12:04;6.33;;;1.93;;
58152;SDS011;43967;51.634;5.566;2023-08-12T12:17:25;6.20;;;1.88;;
58152;SDS011;43967;51.634;5.566;2023-08-12T12:22:46;5.15;;;1.80;;
58152;SDS011;43967;51.634;5.566;2023-08-12T12:28:08;6.03;;;2.03;;
58152;SDS011;43967;51.634;5.566;2023-08-12T12:33:29;6.20;;;2.22;;
58152;SDS011;43967;51.634;5.566;2023-08-12T12:38:51;5.88;;;2.00;;
58152;SDS011;43967;51.634;5.566;2023-08-12T12:44:12;6.80;;;2.63;;
58152;SDS011;43967;51.634;5.566;2023-08-12T12:49:33;5.32;;;1.90;;
58152;SDS011;43967;51.634;5.566;2023-08-12T12:54:55;6.10;;;2.10;;
58152;SDS011;43967;51.634;5.566;2023-08-12T13:00:16;6.63;;;2.30;;
58152;SDS011;43967;51.634;5.566;2023-08-12T13:05:37;5.93;;;1.90;;
58152;SDS011;43967;51.634;5.566;2023-08-12T13:10:58;6.45;;;2.17;;
58152;SDS011;43967;51.634;5.566;2023-08-12T13:16:20;6.45;;;2.20;;
58152;SDS011;43967;51.634;5.566;2023-08-12T13:21:41;6.07;;;2.10;;
58152;SDS011;43967;51.634;5.566;2023-08-12T13:27:03;6.55;;;2.40;;
58152;SDS011;43967;51.634;5.566;2023-08-12T13:32:24;6.18;;;2.00;;
58152;SDS011;43967;51.634;5.566;2023-08-12T13:37:45;5.80;;;1.97;;
58152;SDS011;43967;51.634;5.566;2023-08-12T13:43:06;5.40;;;1.70;;
58152;SDS011;43967;51.634;5.566;2023-08-12T13:48:28;5.95;;;2.10;;
58152;SDS011;43967;51.634;5.566;2023-08-12T13:53:49;6.17;;;1.93;;
58152;SDS011;43967;51.634;5.566;2023-08-12T13:59:10;6.67;;;2.00;;
58152;SDS011;43967;51.634;5.566;2023-08-12T14:04:32;5.88;;;1.90;;
58152;SDS011;43967;51.634;5.566;2023-08-12T14:09:53;6.82;;;2.33;;
58152;SDS011;43967;51.634;5.566;2023-08-12T14:15:14;5.90;;;1.97;;
58152;SDS011;43967;51.634;5.566;2023-08-12T14:20:36;5.45;;;1.83;;
58152;SDS011;43967;51.634;5.566;2023-08-12T14:25:57;5.93;;;1.88;;
58152;SDS011;43967;51.634;5.566;2023-08-12T14:31:18;5.73;;;2.20;;
58152;SDS011;43967;51.634;5.566;2023-08-12T14:36:39;5.65;;;1.60;;
58152;SDS011;43967;51.634;5.566;2023-08-12T14:42:01;7.50;;;1.90;;
58152;SDS011;43967;51.634;5.566;2023-08-12T14:47:22;5.77;;;1.77;;
58152;SDS011;43967;51.634;5.566;2023-08-12T14:52:43;5.93;;;1.90;;
58152;SDS011;43967;51.634;5.566;2023-08-12T14:58:04;7.32;;;1.92;;
58152;SDS011;43967;51.634;5.566;2023-08-12T15:03:26;6.32;;;1.90;;
58152;SDS011;43967;51.634;5.566;2023-08-12T15:08:47;6.30;;;1.90;;
58152;SDS011;43967;51.634;5.566;2023-08-12T15:14:09;5.75;;;1.98;;
58152;SDS011;43967;51.634;5.566;2023-08-12T15:19:30;5.82;;;2.00;;
58152;SDS011;43967;51.634;5.566;2023-08-12T15:24:51;6.47;;;1.90;;
58152;SDS011;43967;51.634;5.566;2023-08-12T15:30:12;5.22;;;1.77;;
58152;SDS011;43967;51.634;5.566;2023-08-12T15:35:34;6.22;;;2.00;;
58152;SDS011;43967;51.634;5.566;2023-08-12T15:40:55;5.70;;;2.07;;
58152;SDS011;43967;51.634;5.566;2023-08-12T15:46:16;6.03;;;2.30;;
58152;SDS011;43967;51.634;5.566;2023-08-12T15:51:38;5.57;;;1.80;;
58152;SDS011;43967;51.634;5.566;2023-08-12T15:56:59;5.70;;;2.00;;
58152;SDS011;43967;51.634;5.566;2023-08-12T16:02:21;6.33;;;1.83;;
58152;SDS011;43967;51.634;5.566;2023-08-12T16:07:42;5.25;;;2.10;;
58152;SDS011;43967;51.634;5.566;2023-08-12T16:13:03;5.95;;;1.80;;
58152;SDS011;43967;51.634;5.566;2023-08-12T16:18:25;6.27;;;2.00;;
58152;SDS011;43967;51.634;5.566;2023-08-12T16:23:46;5.15;;;1.80;;
58152;SDS011;43967;51.634;5.566;2023-08-12T16:29:07;6.80;;;2.17;;
58152;SDS011;43967;51.634;5.566;2023-08-12T16:34:28;6.03;;;2.07;;
58152;SDS011;43967;51.634;5.566;2023-08-12T16:39:50;6.57;;;2.43;;
58152;SDS011;43967;51.634;5.566;2023-08-12T16:45:12;5.97;;;2.22;;
58152;SDS011;43967;51.634;5.566;2023-08-12T16:50:33;5.68;;;2.10;;
58152;SDS011;43967;51.634;5.566;2023-08-12T16:55:54;6.53;;;2.17;;
58152;SDS011;43967;51.634;5.566;2023-08-12T17:01:16;6.22;;;1.83;;
58152;SDS011;43967;51.634;5.566;2023-08-12T17:06:37;6.53;;;2.15;;
58152;SDS011;43967;51.634;5.566;2023-08-12T17:11:59;5.60;;;1.80;;
58152;SDS011;43967;51.634;5.566;2023-08-12T17:17:21;6.40;;;2.10;;
58152;SDS011;43967;51.634;5.566;2023-08-12T17:22:43;5.72;;;1.95;;
58152;SDS011;43967;51.634;5.566;2023-08-12T17:28:04;6.10;;;2.03;;
58152;SDS011;43967;51.634;5.566;2023-08-12T17:33:25;6.63;;;2.10;;
58152;SDS011;43967;51.634;5.566;2023-08-12T17:38:47;6.00;;;1.90;;
58152;SDS011;43967;51.634;5.566;2023-08-12T17:44:08;5.60;;;2.28;;
58152;SDS011;43967;51.634;5.566;2023-08-12T17:49:29;6.43;;;1.87;;
58152;SDS011;43967;51.634;5.566;2023-08-12T17:54:51;5.70;;;2.22;;
58152;SDS011;43967;51.634;5.566;2023-08-12T18:00:13;5.90;;;1.92;;
58152;SDS011;43967;51.634;5.566;2023-08-12T18:05:35;5.73;;;1.97;;
58152;SDS011;43967;51.634;5.566;2023-08-12T18:10:56;6.57;;;2.10;;
58152;SDS011;43967;51.634;5.566;2023-08-12T18:16:17;6.30;;;2.30;;
58152;SDS011;43967;51.634;5.566;2023-08-12T18:21:38;6.40;;;2.27;;
58152;SDS011;43967;51.634;5.566;2023-08-12T18:27:00;6.80;;;2.03;;
58152;SDS011;43967;51.634;5.566;2023-08-12T18:32:21;6.30;;;2.25;;
58152;SDS011;43967;51.634;5.566;2023-08-12T18:37:42;6.28;;;2.60;;
58152;SDS011;43967;51.634;5.566;2023-08-12T18:43:04;5.60;;;1.90;;
58152;SDS011;43967;51.634;5.566;2023-08-12T18:48:25;6.78;;;2.40;;
58152;SDS011;43967;51.634;5.566;2023-08-12T18:53:46;6.25;;;2.25;;
58152;SDS011;43967;51.634;5.566;2023-08-12T18:59:08;6.37;;;2.03;;
58152;SDS011;43967;51.634;5.566;2023-08-12T19:04:29;5.53;;;2.05;;
58152;SDS011;43967;51.634;5.566;2023-08-12T19:09:50;7.20;;;2.42;;
58152;SDS011;43967;51.634;5.566;2023-08-12T19:15:11;6.80;;;1.90;;
58152;SDS011;43967;51.634;5.566;2023-08-12T19:20:33;5.80;;;2.20;;
58152;SDS011;43967;51.634;5.566;2023-08-12T19:25:54;6.45;;;2.30;;
58152;SDS011;43967;51.634;5.566;2023-08-12T19:31:15;7.47;;;2.25;;
58152;SDS011;43967;51.634;5.566;2023-08-12T19:36:36;5.67;;;2.00;;
58152;SDS011;43967;51.634;5.566;2023-08-12T19:41:58;6.10;;;1.90;;
58152;SDS011;43967;51.634;5.566;2023-08-12T19:47:19;5.95;;;2.15;;
58152;SDS011;43967;51.634;5.566;2023-08-12T19:52:40;5.77;;;1.90;;
58152;SDS011;43967;51.634;5.566;2023-08-12T19:58:02;5.80;;;2.40;;
58152;SDS011;43967;51.634;5.566;2023-08-12T20:03:23;6.60;;;2.20;;
58152;SDS011;43967;51.634;5.566;2023-08-12T20:08:44;7.03;;;2.13;;
58152;SDS011;43967;51.634;5.566;2023-08-12T20:14:05;7.10;;;2.33;;
58152;SDS011;43967;51.634;5.566;2023-08-12T20:19:27;6.10;;;2.65;;
58152;SDS011;43967;51.634;5.566;2023-08-12T20:24:48;6.20;;;2.50;;
58152;SDS011;43967;51.634;5.566;2023-08-12T20:30:10;5.73;;;2.10;;
58152;SDS011;43967;51.634;5.566;2023-08-12T20:35:31;6.80;;;2.45;;
58152;SDS011;43967;51.634;5.566;2023-08-12T20:40:53;6.20;;;2.20;;
58152;SDS011;43967;51.634;5.566;2023-08-12T20:46:14;5.90;;;2.03;;
58152;SDS011;43967;51.634;5.566;2023-08-12T20:51:35;5.85;;;2.05;;
58152;SDS011;43967;51.634;5.566;2023-08-12T20:56:57;6.50;;;1.92;;
58152;SDS011;43967;51.634;5.566;2023-08-12T21:02:18;7.37;;;2.10;;
58152;SDS011;43967;51.634;5.566;2023-08-12T21:07:40;6.83;;;2.17;;
58152;SDS011;43967;51.634;5.566;2023-08-12T21:13:01;5.93;;;2.30;;
58152;SDS011;43967;51.634;5.566;2023-08-12T21:18:22;6.68;;;2.45;;
58152;SDS011;43967;51.634;5.566;2023-08-12T21:23:44;6.00;;;2.30;;
58152;SDS011;43967;51.634;5.566;2023-08-12T21:29:05;6.68;;;2.17;;
58152;SDS011;43967;51.634;5.566;2023-08-12T21:34:26;5.93;;;2.05;;
58152;SDS011;43967;51.634;5.566;2023-08-12T21:39:47;7.57;;;2.33;;
58152;SDS011;43967;51.634;5.566;2023-08-12T21:45:09;6.18;;;1.98;;
58152;SDS011;43967;51.634;5.566;2023-08-12T21:50:30;7.10;;;2.22;;
58152;SDS011;43967;51.634;5.566;2023-08-12T21:55:52;6.07;;;2.00;;
58152;SDS011;43967;51.634;5.566;2023-08-12T22:01:13;6.67;;;2.30;;
58152;SDS011;43967;51.634;5.566;2023-08-12T22:06:34;6.65;;;2.58;;
58152;SDS011;43967;51.634;5.566;2023-08-12T22:11:56;6.05;;;2.17;;
58152;SDS011;43967;51.634;5.566;2023-08-12T22:17:17;6.43;;;2.37;;
58152;SDS011;43967;51.634;5.566;2023-08-12T22:22:38;6.18;;;2.00;;
58152;SDS011;43967;51.634;5.566;2023-08-12T22:28:00;5.75;;;1.73;;
58152;SDS011;43967;51.634;5.566;2023-08-12T22:33:21;6.43;;;2.37;;
58152;SDS011;43967;51.634;5.566;2023-08-12T22:38:42;6.05;;;2.08;;
58152;SDS011;43967;51.634;5.566;2023-08-12T22:44:04;6.38;;;2.33;;
58152;SDS011;43967;51.634;5.566;2023-08-12T22:49:25;5.97;;;2.23;;
58152;SDS011;43967;51.634;5.566;2023-08-12T22:54:46;6.27;;;2.10;;
58152;SDS011;43967;51.634;5.566;2023-08-12T23:00:08;6.30;;;1.90;;
58152;SDS011;43967;51.634;5.566;2023-08-12T23:05:29;5.43;;;1.90;;
58152;SDS011;43967;51.634;5.566;2023-08-12T23:10:51;5.90;;;1.80;;
58152;SDS011;43967;51.634;5.566;2023-08-12T23:16:12;6.20;;;2.33;;
58152;SDS011;43967;51.634;5.566;2023-08-12T23:21:33;7.10;;;2.05;;
58152;SDS011;43967;51.634;5.566;2023-08-12T23:26:55;6.00;;;2.10;;
58152;SDS011;43967;51.634;5.566;2023-08-12T23:32:16;5.95;;;1.90;;
58152;SDS011;43967;51.634;5.566;2023-08-12T23:37:37;6.20;;;2.15;;
58152;SDS011;43967;51.634;5.566;2023-08-12T23:43:02;6.10;;;2.23;;
58152;SDS011;43967;51.634;5.566;2023-08-12T23:48:23;6.70;;;2.20;;
58152;SDS011;43967;51.634;5.566;2023-08-12T23:53:44;7.57;;;2.30;;
58152;SDS011;43967;51.634;5.566;2023-08-12T23:59:06;6.03;;;2.50;;
